Valdez, AK

5:37 PM AKST on December 26, 2014 (GMT -0900)
Valdez | Change Station
CLOSE
Current Station
Airport
Location: Valdez Airport,
Elevation: 121 ft
Nearby Weather Stations

Elev 121 ft 61.13 °N, 146.25 °W | Updated 21 minutes ago

Scattered Clouds
Scattered Clouds
23 °F
Feels Like 18 °F
N
4
Wind Variable Wind from East

Today
High -- | Low -- °F
--% Chance of Precip.
Yesterday
High -- | Low -- °F
Precip. -- in
10:00 AM 3:31 PM
Waxing Crescent, 31% visible
Pressure 30.11 in
Visibility 10.0 miles
Clouds Few 1000 ft
Few 5500 ft
Scattered Clouds 9000 ft
Windchill 18 °F
Dew Point 19 °F
Humidity 86%
Rainfall 0.14 in
Snow Depth Not available.
UV 0 out of 12
Pollen Not available.
Air Quality Not available.
Flu Activity Not available.
METAR PAVD 270216Z 09003KT 10SM FEW010 FEW055 SCT090 M05/M07 A3011 RMK AO1 0147Z WEA: NONE TWR WND 04004KT

More Conditions Fewer Conditions

Pressure 30.11 in
Visibility 10.0 miles
Clouds Few 1000 ft
Few 5500 ft
Scattered Clouds 9000 ft
Windchill 18 °F
Dew Point 19 °F
Humidity 86%
Rainfall 0.14 in
Snow Depth Not available.
UV 0 out of 12
Pollen Not available.
Air Quality Not available.
Flu Activity Not available.
METAR PAVD 270216Z 09003KT 10SM FEW010 FEW055 SCT090 M05/M07 A3011 RMK AO1 0147Z WEA: NONE TWR WND 04004KT

More Conditions Fewer Conditions

10-Day Weather Forecast

Almanac

Astronomy

Dec. 26, 2014 Rise Set
Actual Time
Civil Twilight
Nautical Twilight
Astronomical Twilight
Moon
Length of Visible Light
Length of Day
Tomorrow will be .
, % of the Moon is Illuminated

Today's Extremes

State Highs State Lows

Community

WunderPhotos

Upload Photos

1,780,815 photos uploaded!

WunderBlogs® & News

Nearby

Air Quality

  Air Quality AQ Index Pollutant
Not available.

Snow Depth

Station Depth Elevation

Earthquake Activity

City Distance Mag. Time & Date
Minimum magnitude displayed is 2.5.

Coastal Water Temperatures

Place Temperature

Nearby Weather Stations